sensor_id;sensor_type;location;lat;lon;timestamp;temperature;humidity
11532;DHT22;5822;51.000;5.874;2023-12-20T00:00:14;10.80;99.90
11532;DHT22;5822;51.000;5.874;2023-12-20T00:02:40;10.90;99.90
11532;DHT22;5822;51.000;5.874;2023-12-20T00:05:06;10.90;99.90
11532;DHT22;5822;51.000;5.874;2023-12-20T00:07:31;10.80;99.90
11532;DHT22;5822;51.000;5.874;2023-12-20T00:09:57;10.80;99.90
11532;DHT22;5822;51.000;5.874;2023-12-20T00:12:23;10.80;99.90
11532;DHT22;5822;51.000;5.874;2023-12-20T00:14:48;10.80;99.90
11532;DHT22;5822;51.000;5.874;2023-12-20T00:17:14;10.80;99.90
11532;DHT22;5822;51.000;5.874;2023-12-20T00:19:40;10.80;99.90
11532;DHT22;5822;51.000;5.874;2023-12-20T00:22:05;10.70;99.90
11532;DHT22;5822;51.000;5.874;2023-12-20T00:24:31;10.50;99.90
11532;DHT22;5822;51.000;5.874;2023-12-20T00:26:57;10.50;99.90
11532;DHT22;5822;51.000;5.874;2023-12-20T00:29:22;10.40;99.90
11532;DHT22;5822;51.000;5.874;2023-12-20T00:31:48;10.30;99.90
11532;DHT22;5822;51.000;5.874;2023-12-20T00:34:13;10.20;99.90
11532;DHT22;5822;51.000;5.874;2023-12-20T00:36:39;10.10;99.90
11532;DHT22;5822;51.000;5.874;2023-12-20T00:39:05;10.10;99.90
11532;DHT22;5822;51.000;5.874;2023-12-20T00:41:32;10.00;99.90
11532;DHT22;5822;51.000;5.874;2023-12-20T00:43:57;10.00;99.90
11532;DHT22;5822;51.000;5.874;2023-12-20T00:46:23;9.90;99.90
11532;DHT22;5822;51.000;5.874;2023-12-20T00:48:48;9.90;99.90
11532;DHT22;5822;51.000;5.874;2023-12-20T00:51:14;9.80;99.90
11532;DHT22;5822;51.000;5.874;2023-12-20T00:53:40;9.80;99.90
11532;DHT22;5822;51.000;5.874;2023-12-20T00:56:05;9.80;99.90
11532;DHT22;5822;51.000;5.874;2023-12-20T00:58:31;9.70;99.90
11532;DHT22;5822;51.000;5.874;2023-12-20T01:00:57;9.80;99.90
11532;DHT22;5822;51.000;5.874;2023-12-20T01:03:23;9.80;99.90
11532;DHT22;5822;51.000;5.874;2023-12-20T01:05:49;9.80;99.90
11532;DHT22;5822;51.000;5.874;2023-12-20T01:08:14;9.80;99.90
11532;DHT22;5822;51.000;5.874;2023-12-20T01:10:40;9.80;99.90
11532;DHT22;5822;51.000;5.874;2023-12-20T01:13:06;9.70;99.90
11532;DHT22;5822;51.000;5.874;2023-12-20T01:15:31;9.70;99.90
11532;DHT22;5822;51.000;5.874;2023-12-20T01:17:57;9.80;99.90
11532;DHT22;5822;51.000;5.874;2023-12-20T01:20:24;9.90;99.90
11532;DHT22;5822;51.000;5.874;2023-12-20T01:22:50;9.90;99.90
11532;DHT22;5822;51.000;5.874;2023-12-20T01:25:16;9.90;99.90
11532;DHT22;5822;51.000;5.874;2023-12-20T01:27:42;9.90;99.90
11532;DHT22;5822;51.000;5.874;2023-12-20T01:30:08;9.90;99.90
11532;DHT22;5822;51.000;5.874;2023-12-20T01:32:33;9.90;99.90
11532;DHT22;5822;51.000;5.874;2023-12-20T01:34:59;9.80;99.90
11532;DHT22;5822;51.000;5.874;2023-12-20T01:37:25;9.80;99.90
11532;DHT22;5822;51.000;5.874;2023-12-20T01:39:52;9.80;99.90
11532;DHT22;5822;51.000;5.874;2023-12-20T01:42:18;9.60;99.90
11532;DHT22;5822;51.000;5.874;2023-12-20T01:44:43;9.70;99.90
11532;DHT22;5822;51.000;5.874;2023-12-20T01:47:09;9.70;99.90
11532;DHT22;5822;51.000;5.874;2023-12-20T01:49:35;9.70;99.90
11532;DHT22;5822;51.000;5.874;2023-12-20T01:52:01;9.60;99.90
11532;DHT22;5822;51.000;5.874;2023-12-20T01:54:27;9.60;99.90
11532;DHT22;5822;51.000;5.874;2023-12-20T01:56:52;9.50;99.90
11532;DHT22;5822;51.000;5.874;2023-12-20T01:59:19;9.50;99.90
11532;DHT22;5822;51.000;5.874;2023-12-20T02:01:46;9.60;99.90
11532;DHT22;5822;51.000;5.874;2023-12-20T02:04:12;9.70;99.90
11532;DHT22;5822;51.000;5.874;2023-12-20T02:06:39;9.60;99.90
11532;DHT22;5822;51.000;5.874;2023-12-20T02:09:06;9.50;99.90
11532;DHT22;5822;51.000;5.874;2023-12-20T02:11:33;9.50;99.90
11532;DHT22;5822;51.000;5.874;2023-12-20T02:13:59;9.50;99.90
11532;DHT22;5822;51.000;5.874;2023-12-20T02:16:24;9.50;99.90
11532;DHT22;5822;51.000;5.874;2023-12-20T02:18:50;9.40;99.90
11532;DHT22;5822;51.000;5.874;2023-12-20T02:21:15;9.30;99.90
11532;DHT22;5822;51.000;5.874;2023-12-20T02:23:41;9.40;99.90
11532;DHT22;5822;51.000;5.874;2023-12-20T02:26:07;9.40;99.90
11532;DHT22;5822;51.000;5.874;2023-12-20T02:28:33;9.50;99.90
11532;DHT22;5822;51.000;5.874;2023-12-20T02:30:59;9.50;99.90
11532;DHT22;5822;51.000;5.874;2023-12-20T02:33:24;9.40;99.90
11532;DHT22;5822;51.000;5.874;2023-12-20T02:35:50;9.40;99.90
11532;DHT22;5822;51.000;5.874;2023-12-20T02:38:15;9.50;99.90
11532;DHT22;5822;51.000;5.874;2023-12-20T02:40:41;9.50;99.90
11532;DHT22;5822;51.000;5.874;2023-12-20T02:43:07;9.40;99.90
11532;DHT22;5822;51.000;5.874;2023-12-20T02:45:32;9.50;99.90
11532;DHT22;5822;51.000;5.874;2023-12-20T02:47:58;9.50;99.90
11532;DHT22;5822;51.000;5.874;2023-12-20T02:50:24;9.40;99.90
11532;DHT22;5822;51.000;5.874;2023-12-20T02:52:49;9.40;99.90
11532;DHT22;5822;51.000;5.874;2023-12-20T02:55:15;9.50;99.90
11532;DHT22;5822;51.000;5.874;2023-12-20T02:57:40;9.50;99.90
11532;DHT22;5822;51.000;5.874;2023-12-20T03:00:10;9.50;99.90
11532;DHT22;5822;51.000;5.874;2023-12-20T03:02:36;9.50;99.90
11532;DHT22;5822;51.000;5.874;2023-12-20T03:05:02;9.50;99.90
11532;DHT22;5822;51.000;5.874;2023-12-20T03:07:28;9.40;99.90
11532;DHT22;5822;51.000;5.874;2023-12-20T03:09:54;9.50;99.90
11532;DHT22;5822;51.000;5.874;2023-12-20T03:12:20;9.50;99.90
11532;DHT22;5822;51.000;5.874;2023-12-20T03:14:45;9.30;99.90
11532;DHT22;5822;51.000;5.874;2023-12-20T03:17:11;9.30;99.90
11532;DHT22;5822;51.000;5.874;2023-12-20T03:19:36;9.30;99.90
11532;DHT22;5822;51.000;5.874;2023-12-20T03:22:02;9.30;99.90
11532;DHT22;5822;51.000;5.874;2023-12-20T03:24:28;9.30;99.90
11532;DHT22;5822;51.000;5.874;2023-12-20T03:26:53;9.30;99.90
11532;DHT22;5822;51.000;5.874;2023-12-20T03:29:19;9.30;99.90
11532;DHT22;5822;51.000;5.874;2023-12-20T03:31:45;9.30;99.90
11532;DHT22;5822;51.000;5.874;2023-12-20T03:34:11;9.30;99.90
11532;DHT22;5822;51.000;5.874;2023-12-20T03:36:37;9.40;99.90
11532;DHT22;5822;51.000;5.874;2023-12-20T03:39:03;9.30;99.90
11532;DHT22;5822;51.000;5.874;2023-12-20T03:41:28;9.40;99.90
11532;DHT22;5822;51.000;5.874;2023-12-20T03:43:54;9.50;99.90
11532;DHT22;5822;51.000;5.874;2023-12-20T03:46:20;9.30;99.90
11532;DHT22;5822;51.000;5.874;2023-12-20T03:48:45;9.30;99.90
11532;DHT22;5822;51.000;5.874;2023-12-20T03:51:11;9.30;99.90
11532;DHT22;5822;51.000;5.874;2023-12-20T03:53:37;9.20;99.90
11532;DHT22;5822;51.000;5.874;2023-12-20T03:56:03;9.10;99.90
11532;DHT22;5822;51.000;5.874;2023-12-20T03:58:29;9.20;99.90
11532;DHT22;5822;51.000;5.874;2023-12-20T04:00:54;9.20;99.90
11532;DHT22;5822;51.000;5.874;2023-12-20T04:03:20;9.20;99.90
11532;DHT22;5822;51.000;5.874;2023-12-20T04:05:46;9.20;99.90
11532;DHT22;5822;51.000;5.874;2023-12-20T04:08:11;9.20;99.90
11532;DHT22;5822;51.000;5.874;2023-12-20T04:10:37;9.10;99.90
11532;DHT22;5822;51.000;5.874;2023-12-20T04:13:04;9.10;99.90
11532;DHT22;5822;51.000;5.874;2023-12-20T04:15:29;9.10;99.90
11532;DHT22;5822;51.000;5.874;2023-12-20T04:17:55;9.10;99.90
11532;DHT22;5822;51.000;5.874;2023-12-20T04:20:21;9.10;99.90
11532;DHT22;5822;51.000;5.874;2023-12-20T04:22:46;9.10;99.90
11532;DHT22;5822;51.000;5.874;2023-12-20T04:25:12;9.00;99.90
11532;DHT22;5822;51.000;5.874;2023-12-20T04:27:37;9.00;99.90
11532;DHT22;5822;51.000;5.874;2023-12-20T04:30:03;9.00;99.90
11532;DHT22;5822;51.000;5.874;2023-12-20T04:32:29;9.00;99.90
11532;DHT22;5822;51.000;5.874;2023-12-20T04:34:55;9.00;99.90
11532;DHT22;5822;51.000;5.874;2023-12-20T04:37:20;9.10;99.90
11532;DHT22;5822;51.000;5.874;2023-12-20T04:39:46;9.10;99.90
11532;DHT22;5822;51.000;5.874;2023-12-20T04:42:12;9.00;99.90
11532;DHT22;5822;51.000;5.874;2023-12-20T04:44:37;9.00;99.90
11532;DHT22;5822;51.000;5.874;2023-12-20T04:47:03;9.10;99.90
11532;DHT22;5822;51.000;5.874;2023-12-20T04:49:29;9.20;99.90
11532;DHT22;5822;51.000;5.874;2023-12-20T04:51:54;9.20;99.90
11532;DHT22;5822;51.000;5.874;2023-12-20T04:54:21;9.20;99.90
11532;DHT22;5822;51.000;5.874;2023-12-20T04:56:46;9.10;99.90
11532;DHT22;5822;51.000;5.874;2023-12-20T04:59:12;9.10;99.90
11532;DHT22;5822;51.000;5.874;2023-12-20T05:01:38;9.10;99.90
11532;DHT22;5822;51.000;5.874;2023-12-20T05:04:04;9.10;99.90
11532;DHT22;5822;51.000;5.874;2023-12-20T05:06:30;9.10;99.90
11532;DHT22;5822;51.000;5.874;2023-12-20T05:08:55;9.10;99.90
11532;DHT22;5822;51.000;5.874;2023-12-20T05:11:21;9.10;99.90
11532;DHT22;5822;51.000;5.874;2023-12-20T05:13:47;9.10;99.90
11532;DHT22;5822;51.000;5.874;2023-12-20T05:16:13;9.00;99.90
11532;DHT22;5822;51.000;5.874;2023-12-20T05:18:40;9.10;99.90
11532;DHT22;5822;51.000;5.874;2023-12-20T05:21:05;9.00;99.90
11532;DHT22;5822;51.000;5.874;2023-12-20T05:23:32;9.10;99.90
11532;DHT22;5822;51.000;5.874;2023-12-20T05:25:57;9.10;99.90
11532;DHT22;5822;51.000;5.874;2023-12-20T05:28:24;9.10;99.90
11532;DHT22;5822;51.000;5.874;2023-12-20T05:30:50;9.10;99.90
11532;DHT22;5822;51.000;5.874;2023-12-20T05:33:15;9.10;99.90
11532;DHT22;5822;51.000;5.874;2023-12-20T05:35:41;9.20;99.90
11532;DHT22;5822;51.000;5.874;2023-12-20T05:38:06;9.20;99.90
11532;DHT22;5822;51.000;5.874;2023-12-20T05:40:32;9.20;99.90
11532;DHT22;5822;51.000;5.874;2023-12-20T05:42:58;9.20;99.90
11532;DHT22;5822;51.000;5.874;2023-12-20T05:45:23;9.20;99.90
11532;DHT22;5822;51.000;5.874;2023-12-20T05:47:49;9.30;99.90
11532;DHT22;5822;51.000;5.874;2023-12-20T05:50:15;9.30;99.90
11532;DHT22;5822;51.000;5.874;2023-12-20T05:52:40;9.30;99.90
11532;DHT22;5822;51.000;5.874;2023-12-20T05:55:06;9.20;99.90
11532;DHT22;5822;51.000;5.874;2023-12-20T05:57:32;9.20;99.90
11532;DHT22;5822;51.000;5.874;2023-12-20T05:59:57;9.30;99.90
11532;DHT22;5822;51.000;5.874;2023-12-20T06:02:23;9.20;99.90
11532;DHT22;5822;51.000;5.874;2023-12-20T06:04:49;9.10;99.90
11532;DHT22;5822;51.000;5.874;2023-12-20T06:07:15;9.10;99.90
11532;DHT22;5822;51.000;5.874;2023-12-20T06:09:41;9.00;99.90
11532;DHT22;5822;51.000;5.874;2023-12-20T06:12:07;9.00;99.90
11532;DHT22;5822;51.000;5.874;2023-12-20T06:14:36;9.10;99.90
11532;DHT22;5822;51.000;5.874;2023-12-20T06:17:02;9.00;99.90
11532;DHT22;5822;51.000;5.874;2023-12-20T06:19:28;9.00;99.90
11532;DHT22;5822;51.000;5.874;2023-12-20T06:21:53;9.00;99.90
11532;DHT22;5822;51.000;5.874;2023-12-20T06:24:19;9.00;99.90
11532;DHT22;5822;51.000;5.874;2023-12-20T06:26:45;9.00;99.90
11532;DHT22;5822;51.000;5.874;2023-12-20T06:29:11;9.00;99.90
11532;DHT22;5822;51.000;5.874;2023-12-20T06:31:37;9.00;99.90
11532;DHT22;5822;51.000;5.874;2023-12-20T06:34:03;9.00;99.90
11532;DHT22;5822;51.000;5.874;2023-12-20T06:36:28;9.00;99.90
11532;DHT22;5822;51.000;5.874;2023-12-20T06:38:54;9.00;99.90
11532;DHT22;5822;51.000;5.874;2023-12-20T06:41:20;8.90;99.90
11532;DHT22;5822;51.000;5.874;2023-12-20T06:43:45;8.80;99.90
11532;DHT22;5822;51.000;5.874;2023-12-20T06:46:11;8.80;99.90
11532;DHT22;5822;51.000;5.874;2023-12-20T06:48:38;8.80;99.90
11532;DHT22;5822;51.000;5.874;2023-12-20T06:51:05;8.70;99.90
11532;DHT22;5822;51.000;5.874;2023-12-20T06:53:31;8.70;99.90
11532;DHT22;5822;51.000;5.874;2023-12-20T06:55:56;8.70;99.90
11532;DHT22;5822;51.000;5.874;2023-12-20T06:58:22;8.70;99.90
11532;DHT22;5822;51.000;5.874;2023-12-20T07:00:48;8.80;99.90
11532;DHT22;5822;51.000;5.874;2023-12-20T07:03:14;8.80;99.90
11532;DHT22;5822;51.000;5.874;2023-12-20T07:05:40;8.80;99.90
11532;DHT22;5822;51.000;5.874;2023-12-20T07:08:06;8.90;99.90
11532;DHT22;5822;51.000;5.874;2023-12-20T07:10:32;8.80;99.90
11532;DHT22;5822;51.000;5.874;2023-12-20T07:12:57;8.80;99.90
11532;DHT22;5822;51.000;5.874;2023-12-20T07:15:23;8.80;99.90
11532;DHT22;5822;51.000;5.874;2023-12-20T07:17:49;8.40;99.90
11532;DHT22;5822;51.000;5.874;2023-12-20T07:20:15;8.80;99.90
11532;DHT22;5822;51.000;5.874;2023-12-20T07:22:40;8.80;99.90
11532;DHT22;5822;51.000;5.874;2023-12-20T07:25:06;8.90;99.90
11532;DHT22;5822;51.000;5.874;2023-12-20T07:27:32;8.80;99.90
11532;DHT22;5822;51.000;5.874;2023-12-20T07:29:58;8.60;99.90
11532;DHT22;5822;51.000;5.874;2023-12-20T07:32:24;8.60;99.90
11532;DHT22;5822;51.000;5.874;2023-12-20T07:34:49;8.70;99.90
11532;DHT22;5822;51.000;5.874;2023-12-20T07:37:15;8.60;99.90
11532;DHT22;5822;51.000;5.874;2023-12-20T07:39:41;8.60;99.90
11532;DHT22;5822;51.000;5.874;2023-12-20T07:42:07;8.60;99.90
11532;DHT22;5822;51.000;5.874;2023-12-20T07:44:33;8.60;99.90
11532;DHT22;5822;51.000;5.874;2023-12-20T07:46:59;8.70;99.90
11532;DHT22;5822;51.000;5.874;2023-12-20T07:49:24;8.80;99.90
11532;DHT22;5822;51.000;5.874;2023-12-20T07:51:50;8.70;99.90
11532;DHT22;5822;51.000;5.874;2023-12-20T07:54:16;8.70;99.90
11532;DHT22;5822;51.000;5.874;2023-12-20T07:56:42;8.60;99.90
11532;DHT22;5822;51.000;5.874;2023-12-20T07:59:07;8.60;99.90
11532;DHT22;5822;51.000;5.874;2023-12-20T08:01:33;8.70;99.90
11532;DHT22;5822;51.000;5.874;2023-12-20T08:03:59;8.80;99.90
11532;DHT22;5822;51.000;5.874;2023-12-20T08:06:24;8.70;99.90
11532;DHT22;5822;51.000;5.874;2023-12-20T08:08:50;8.60;99.90
11532;DHT22;5822;51.000;5.874;2023-12-20T08:11:16;8.60;99.90
11532;DHT22;5822;51.000;5.874;2023-12-20T08:13:41;8.60;99.90
11532;DHT22;5822;51.000;5.874;2023-12-20T08:16:07;8.50;99.90
11532;DHT22;5822;51.000;5.874;2023-12-20T08:18:33;8.50;99.90
11532;DHT22;5822;51.000;5.874;2023-12-20T08:20:59;8.60;99.90
11532;DHT22;5822;51.000;5.874;2023-12-20T08:23:26;8.70;99.90
11532;DHT22;5822;51.000;5.874;2023-12-20T08:25:52;8.70;99.90
11532;DHT22;5822;51.000;5.874;2023-12-20T08:28:17;8.70;99.90
11532;DHT22;5822;51.000;5.874;2023-12-20T08:30:43;8.70;99.90
11532;DHT22;5822;51.000;5.874;2023-12-20T08:33:09;8.70;99.90
11532;DHT22;5822;51.000;5.874;2023-12-20T08:35:41;8.70;99.90
11532;DHT22;5822;51.000;5.874;2023-12-20T08:38:06;8.60;99.90
11532;DHT22;5822;51.000;5.874;2023-12-20T08:40:32;8.70;99.90
11532;DHT22;5822;51.000;5.874;2023-12-20T08:42:58;8.60;99.90
11532;DHT22;5822;51.000;5.874;2023-12-20T08:45:23;8.70;99.90
11532;DHT22;5822;51.000;5.874;2023-12-20T08:47:50;8.70;99.90
11532;DHT22;5822;51.000;5.874;2023-12-20T08:50:15;8.40;99.90
11532;DHT22;5822;51.000;5.874;2023-12-20T08:52:41;8.60;99.90
11532;DHT22;5822;51.000;5.874;2023-12-20T08:55:10;8.50;99.90
11532;DHT22;5822;51.000;5.874;2023-12-20T08:57:36;8.50;99.90
11532;DHT22;5822;51.000;5.874;2023-12-20T09:00:02;8.50;99.90
11532;DHT22;5822;51.000;5.874;2023-12-20T09:02:28;8.50;99.90
11532;DHT22;5822;51.000;5.874;2023-12-20T09:04:54;8.60;99.90
11532;DHT22;5822;51.000;5.874;2023-12-20T09:07:24;8.50;99.90
11532;DHT22;5822;51.000;5.874;2023-12-20T09:09:50;8.40;99.90
11532;DHT22;5822;51.000;5.874;2023-12-20T09:12:18;8.50;99.90
11532;DHT22;5822;51.000;5.874;2023-12-20T09:14:49;8.50;99.90
11532;DHT22;5822;51.000;5.874;2023-12-20T09:17:15;8.50;99.90
11532;DHT22;5822;51.000;5.874;2023-12-20T09:19:45;8.50;99.90
11532;DHT22;5822;51.000;5.874;2023-12-20T09:22:11;8.60;99.90
11532;DHT22;5822;51.000;5.874;2023-12-20T09:24:37;8.70;99.90
11532;DHT22;5822;51.000;5.874;2023-12-20T09:27:04;8.70;99.90
11532;DHT22;5822;51.000;5.874;2023-12-20T09:29:31;8.70;99.90
11532;DHT22;5822;51.000;5.874;2023-12-20T09:31:56;8.70;99.90
11532;DHT22;5822;51.000;5.874;2023-12-20T09:34:23;8.70;99.90
11532;DHT22;5822;51.000;5.874;2023-12-20T09:36:49;8.70;99.90
11532;DHT22;5822;51.000;5.874;2023-12-20T09:39:16;8.60;99.90
11532;DHT22;5822;51.000;5.874;2023-12-20T09:42:21;8.70;99.90
11532;DHT22;5822;51.000;5.874;2023-12-20T09:44:39;8.70;99.90
11532;DHT22;5822;51.000;5.874;2023-12-20T09:47:08;8.70;99.90
11532;DHT22;5822;51.000;5.874;2023-12-20T09:49:34;8.70;99.90
11532;DHT22;5822;51.000;5.874;2023-12-20T09:52:00;8.80;99.90
11532;DHT22;5822;51.000;5.874;2023-12-20T09:54:28;8.80;99.90
11532;DHT22;5822;51.000;5.874;2023-12-20T09:56:54;8.80;99.90
11532;DHT22;5822;51.000;5.874;2023-12-20T09:59:19;8.80;99.90
11532;DHT22;5822;51.000;5.874;2023-12-20T10:01:45;8.80;99.90
11532;DHT22;5822;51.000;5.874;2023-12-20T10:04:12;8.70;99.90
11532;DHT22;5822;51.000;5.874;2023-12-20T10:06:42;8.80;99.90
11532;DHT22;5822;51.000;5.874;2023-12-20T10:09:10;8.80;99.90
11532;DHT22;5822;51.000;5.874;2023-12-20T10:11:37;8.90;99.90
11532;DHT22;5822;51.000;5.874;2023-12-20T10:14:03;8.80;99.90
11532;DHT22;5822;51.000;5.874;2023-12-20T10:16:29;8.80;99.90
11532;DHT22;5822;51.000;5.874;2023-12-20T10:18:56;8.80;99.90
11532;DHT22;5822;51.000;5.874;2023-12-20T10:21:25;8.80;99.90
11532;DHT22;5822;51.000;5.874;2023-12-20T10:23:55;8.90;99.90
11532;DHT22;5822;51.000;5.874;2023-12-20T10:26:21;8.90;99.90
11532;DHT22;5822;51.000;5.874;2023-12-20T10:28:51;8.90;99.90
11532;DHT22;5822;51.000;5.874;2023-12-20T10:31:46;8.90;99.90
11532;DHT22;5822;51.000;5.874;2023-12-20T10:34:12;9.10;99.90
11532;DHT22;5822;51.000;5.874;2023-12-20T10:36:37;9.10;99.90
11532;DHT22;5822;51.000;5.874;2023-12-20T10:39:05;9.10;99.90
11532;DHT22;5822;51.000;5.874;2023-12-20T10:41:32;9.20;99.90
11532;DHT22;5822;51.000;5.874;2023-12-20T10:44:03;9.10;99.90
11532;DHT22;5822;51.000;5.874;2023-12-20T10:46:30;9.20;99.90
11532;DHT22;5822;51.000;5.874;2023-12-20T10:48:58;9.20;99.90
11532;DHT22;5822;51.000;5.874;2023-12-20T10:51:25;9.30;99.90
11532;DHT22;5822;51.000;5.874;2023-12-20T10:53:55;9.20;99.90
11532;DHT22;5822;51.000;5.874;2023-12-20T10:56:21;9.20;99.90
11532;DHT22;5822;51.000;5.874;2023-12-20T10:58:49;9.20;99.90
11532;DHT22;5822;51.000;5.874;2023-12-20T11:01:17;9.30;99.90
11532;DHT22;5822;51.000;5.874;2023-12-20T11:03:54;9.30;99.90
11532;DHT22;5822;51.000;5.874;2023-12-20T11:06:51;9.40;99.90
11532;DHT22;5822;51.000;5.874;2023-12-20T11:09:25;9.40;99.90
11532;DHT22;5822;51.000;5.874;2023-12-20T11:14:45;9.50;99.90
11532;DHT22;5822;51.000;5.874;2023-12-20T11:17:12;9.50;99.90
11532;DHT22;5822;51.000;5.874;2023-12-20T11:22:31;9.60;99.90
11532;DHT22;5822;51.000;5.874;2023-12-20T11:25:08;9.60;99.90
11532;DHT22;5822;51.000;5.874;2023-12-20T11:27:35;9.60;99.90
11532;DHT22;5822;51.000;5.874;2023-12-20T11:30:03;9.70;99.90
11532;DHT22;5822;51.000;5.874;2023-12-20T11:32:34;9.70;99.90
11532;DHT22;5822;51.000;5.874;2023-12-20T11:37:38;9.60;99.90
11532;DHT22;5822;51.000;5.874;2023-12-20T11:40:12;9.70;99.90
11532;DHT22;5822;51.000;5.874;2023-12-20T11:42:48;9.70;99.90
11532;DHT22;5822;51.000;5.874;2023-12-20T11:45:16;9.70;99.90
11532;DHT22;5822;51.000;5.874;2023-12-20T11:47:45;9.60;99.90
11532;DHT22;5822;51.000;5.874;2023-12-20T11:50:13;9.70;99.90
11532;DHT22;5822;51.000;5.874;2023-12-20T11:52:39;9.70;99.90
11532;DHT22;5822;51.000;5.874;2023-12-20T11:55:05;9.70;99.90
11532;DHT22;5822;51.000;5.874;2023-12-20T11:57:31;9.70;99.90
11532;DHT22;5822;51.000;5.874;2023-12-20T11:59:57;9.70;99.90
11532;DHT22;5822;51.000;5.874;2023-12-20T12:02:23;9.70;99.90
11532;DHT22;5822;51.000;5.874;2023-12-20T12:04:49;9.70;99.90
11532;DHT22;5822;51.000;5.874;2023-12-20T12:07:18;9.80;99.90
11532;DHT22;5822;51.000;5.874;2023-12-20T12:09:44;9.70;99.90
11532;DHT22;5822;51.000;5.874;2023-12-20T12:12:11;9.70;99.90
11532;DHT22;5822;51.000;5.874;2023-12-20T12:14:38;9.70;99.90
11532;DHT22;5822;51.000;5.874;2023-12-20T12:17:04;9.80;99.90
11532;DHT22;5822;51.000;5.874;2023-12-20T12:19:30;9.90;99.90
11532;DHT22;5822;51.000;5.874;2023-12-20T12:22:12;9.80;99.90
11532;DHT22;5822;51.000;5.874;2023-12-20T12:24:48;9.80;99.90
11532;DHT22;5822;51.000;5.874;2023-12-20T12:27:15;9.80;99.90
11532;DHT22;5822;51.000;5.874;2023-12-20T12:29:42;9.70;99.90
11532;DHT22;5822;51.000;5.874;2023-12-20T12:32:25;9.70;99.90
11532;DHT22;5822;51.000;5.874;2023-12-20T12:34:51;9.70;99.90
11532;DHT22;5822;51.000;5.874;2023-12-20T12:37:16;9.70;99.90
11532;DHT22;5822;51.000;5.874;2023-12-20T12:39:42;9.70;99.90
11532;DHT22;5822;51.000;5.874;2023-12-20T12:42:08;9.80;99.90
11532;DHT22;5822;51.000;5.874;2023-12-20T12:44:33;9.90;99.90
11532;DHT22;5822;51.000;5.874;2023-12-20T12:46:59;9.90;99.90
11532;DHT22;5822;51.000;5.874;2023-12-20T12:49:25;9.80;99.90
11532;DHT22;5822;51.000;5.874;2023-12-20T12:51:51;9.80;99.90
11532;DHT22;5822;51.000;5.874;2023-12-20T12:54:17;9.90;99.90
11532;DHT22;5822;51.000;5.874;2023-12-20T12:56:43;9.90;99.90
11532;DHT22;5822;51.000;5.874;2023-12-20T12:59:09;9.90;99.90
11532;DHT22;5822;51.000;5.874;2023-12-20T13:01:35;9.80;99.90
11532;DHT22;5822;51.000;5.874;2023-12-20T13:04:01;9.80;99.90
11532;DHT22;5822;51.000;5.874;2023-12-20T13:06:29;9.80;99.90
11532;DHT22;5822;51.000;5.874;2023-12-20T13:08:54;9.80;99.90
11532;DHT22;5822;51.000;5.874;2023-12-20T13:11:20;9.80;99.90
11532;DHT22;5822;51.000;5.874;2023-12-20T13:13:46;9.70;99.90
11532;DHT22;5822;51.000;5.874;2023-12-20T13:16:12;9.80;99.90
11532;DHT22;5822;51.000;5.874;2023-12-20T13:18:38;9.80;99.90
11532;DHT22;5822;51.000;5.874;2023-12-20T13:21:08;9.80;99.90
11532;DHT22;5822;51.000;5.874;2023-12-20T13:23:34;9.80;99.90
11532;DHT22;5822;51.000;5.874;2023-12-20T13:25:59;9.80;99.90
11532;DHT22;5822;51.000;5.874;2023-12-20T13:28:25;9.90;99.90
11532;DHT22;5822;51.000;5.874;2023-12-20T13:30:51;9.90;99.90
11532;DHT22;5822;51.000;5.874;2023-12-20T13:33:16;9.90;99.90
11532;DHT22;5822;51.000;5.874;2023-12-20T13:35:42;9.90;99.90
11532;DHT22;5822;51.000;5.874;2023-12-20T13:38:07;10.00;99.90
11532;DHT22;5822;51.000;5.874;2023-12-20T13:40:33;10.00;99.90
11532;DHT22;5822;51.000;5.874;2023-12-20T13:42:59;10.00;99.90
11532;DHT22;5822;51.000;5.874;2023-12-20T13:45:24;10.10;99.90
11532;DHT22;5822;51.000;5.874;2023-12-20T13:47:50;10.10;99.90
11532;DHT22;5822;51.000;5.874;2023-12-20T13:50:16;10.20;99.90
11532;DHT22;5822;51.000;5.874;2023-12-20T13:52:42;10.10;99.90
11532;DHT22;5822;51.000;5.874;2023-12-20T13:55:08;10.20;99.90
11532;DHT22;5822;51.000;5.874;2023-12-20T13:57:35;10.00;99.90
11532;DHT22;5822;51.000;5.874;2023-12-20T14:00:04;10.10;99.90
11532;DHT22;5822;51.000;5.874;2023-12-20T14:02:30;10.00;99.90
11532;DHT22;5822;51.000;5.874;2023-12-20T14:04:55;10.10;99.90
11532;DHT22;5822;51.000;5.874;2023-12-20T14:07:21;10.10;99.90
11532;DHT22;5822;51.000;5.874;2023-12-20T14:09:47;10.00;99.90
11532;DHT22;5822;51.000;5.874;2023-12-20T14:12:13;10.00;99.90
11532;DHT22;5822;51.000;5.874;2023-12-20T14:14:39;10.00;99.90
11532;DHT22;5822;51.000;5.874;2023-12-20T14:17:04;10.00;99.90
11532;DHT22;5822;51.000;5.874;2023-12-20T14:19:33;10.00;99.90
11532;DHT22;5822;51.000;5.874;2023-12-20T14:21:58;10.00;99.90
11532;DHT22;5822;51.000;5.874;2023-12-20T14:24:28;9.90;99.90
11532;DHT22;5822;51.000;5.874;2023-12-20T14:26:54;10.00;99.90
11532;DHT22;5822;51.000;5.874;2023-12-20T14:29:19;10.10;99.90
11532;DHT22;5822;51.000;5.874;2023-12-20T14:31:45;10.00;99.90
11532;DHT22;5822;51.000;5.874;2023-12-20T14:34:11;10.10;99.90
11532;DHT22;5822;51.000;5.874;2023-12-20T14:36:37;10.20;99.90
11532;DHT22;5822;51.000;5.874;2023-12-20T14:39:03;10.20;99.90
11532;DHT22;5822;51.000;5.874;2023-12-20T14:41:30;10.10;99.90
11532;DHT22;5822;51.000;5.874;2023-12-20T14:43:56;10.10;99.90
11532;DHT22;5822;51.000;5.874;2023-12-20T14:46:21;10.10;99.90
11532;DHT22;5822;51.000;5.874;2023-12-20T14:48:47;10.20;99.90
11532;DHT22;5822;51.000;5.874;2023-12-20T14:51:15;10.20;99.90
11532;DHT22;5822;51.000;5.874;2023-12-20T14:53:41;10.10;99.90
11532;DHT22;5822;51.000;5.874;2023-12-20T14:56:08;10.20;99.90
11532;DHT22;5822;51.000;5.874;2023-12-20T14:58:33;10.10;99.90
11532;DHT22;5822;51.000;5.874;2023-12-20T15:00:59;10.10;99.90
11532;DHT22;5822;51.000;5.874;2023-12-20T15:03:25;10.10;99.90
11532;DHT22;5822;51.000;5.874;2023-12-20T15:05:50;10.10;99.90
11532;DHT22;5822;51.000;5.874;2023-12-20T15:08:16;10.10;99.90
11532;DHT22;5822;51.000;5.874;2023-12-20T15:10:42;10.10;99.90
11532;DHT22;5822;51.000;5.874;2023-12-20T15:13:07;10.10;99.90
11532;DHT22;5822;51.000;5.874;2023-12-20T15:15:33;10.10;99.90
11532;DHT22;5822;51.000;5.874;2023-12-20T15:18:02;10.10;99.90
11532;DHT22;5822;51.000;5.874;2023-12-20T15:20:30;10.20;99.90
11532;DHT22;5822;51.000;5.874;2023-12-20T15:22:58;10.20;99.90
11532;DHT22;5822;51.000;5.874;2023-12-20T15:25:30;10.20;99.90
11532;DHT22;5822;51.000;5.874;2023-12-20T15:27:56;10.20;99.90
11532;DHT22;5822;51.000;5.874;2023-12-20T15:30:21;10.30;99.90
11532;DHT22;5822;51.000;5.874;2023-12-20T15:32:49;10.30;99.90
11532;DHT22;5822;51.000;5.874;2023-12-20T15:35:15;10.20;99.90
11532;DHT22;5822;51.000;5.874;2023-12-20T15:37:41;10.20;99.90
11532;DHT22;5822;51.000;5.874;2023-12-20T15:40:10;10.30;99.90
11532;DHT22;5822;51.000;5.874;2023-12-20T15:42:37;10.30;99.90
11532;DHT22;5822;51.000;5.874;2023-12-20T15:45:04;10.20;99.90
11532;DHT22;5822;51.000;5.874;2023-12-20T15:47:29;10.30;99.90
11532;DHT22;5822;51.000;5.874;2023-12-20T15:49:55;10.30;99.90
11532;DHT22;5822;51.000;5.874;2023-12-20T15:52:21;10.30;99.90
11532;DHT22;5822;51.000;5.874;2023-12-20T15:54:47;10.30;99.90
11532;DHT22;5822;51.000;5.874;2023-12-20T15:57:13;10.10;99.90
11532;DHT22;5822;51.000;5.874;2023-12-20T15:59:41;10.20;99.90
11532;DHT22;5822;51.000;5.874;2023-12-20T16:02:07;10.10;99.90